Time;durP1;ratioP1;P1;durP2;ratioP2;P2;SDS_P1;SDS_P2;PMS_P1;PMS_P2;Temp;Humidity;BMP_temperature;BMP_pressure;BME280_temperature;BME280_humidity;BME280_pressure;Samples;Min_cycle;Max_cycle;Signal;HPM_P1;HPM_P2
2022/01/22 00:00:25;;;;;;;21.23;3.25;;;6.40;99.90;;;;;;5108628;28;20047;-65
2022/01/22 00:02:51;;;;;;;20.00;3.25;;;6.50;99.90;;;;;;5109241;28;20060;-65
2022/01/22 00:05:20;;;;;;;23.50;3.90;;;6.50;99.90;;;;;;5109611;28;20154;-64
2022/01/22 00:07:45;;;;;;;20.27;3.25;;;6.40;99.90;;;;;;5128078;28;20043;-65
2022/01/22 00:10:14;;;;;;;14.75;2.83;;;6.60;99.90;;;;;;5126298;28;20069;-64
2022/01/22 00:12:55;;;;;;;19.60;3.53;;;6.50;99.90;;;;;;5108465;28;20090;-65
2022/01/22 00:15:24;;;;;;;22.83;3.10;;;6.40;99.90;;;;;;5127421;28;20051;-64
2022/01/22 00:17:51;;;;;;;17.25;3.30;;;6.50;99.90;;;;;;5108675;28;20043;-65
2022/01/22 00:20:19;;;;;;;19.77;2.85;;;6.50;99.90;;;;;;5142201;27;20481;-64
2022/01/22 00:22:45;;;;;;;12.02;2.22;;;6.50;99.90;;;;;;5087146;28;20055;-64
2022/01/22 00:25:13;;;;;;;18.42;2.67;;;6.40;99.90;;;;;;5142063;27;20047;-64
2022/01/22 00:27:42;;;;;;;17.45;2.60;;;6.60;99.90;;;;;;5108275;28;20580;-64
2022/01/22 00:30:11;;;;;;;12.15;2.55;;;6.60;99.90;;;;;;5112017;28;20047;-65
2022/01/22 00:32:37;;;;;;;12.82;2.40;;;6.60;99.90;;;;;;5091989;28;20488;-64
2022/01/22 00:35:04;;;;;;;11.00;2.20;;;6.60;99.90;;;;;;5141253;27;20054;-64
2022/01/22 00:37:31;;;;;;;9.63;1.60;;;6.50;99.90;;;;;;5095698;28;20047;-64
2022/01/22 00:39:57;;;;;;;9.10;1.73;;;6.60;99.90;;;;;;5107204;28;20075;-65
2022/01/22 00:42:23;;;;;;;8.43;1.60;;;6.60;99.90;;;;;;5126262;28;20038;-65
2022/01/22 00:44:51;;;;;;;11.65;1.90;;;6.60;99.90;;;;;;5107108;28;20057;-65
2022/01/22 00:47:17;;;;;;;7.75;1.77;;;6.50;99.90;;;;;;5107236;28;20039;-64
2022/01/22 00:49:43;;;;;;;9.63;1.98;;;6.60;99.90;;;;;;5118336;28;20044;-65
2022/01/22 00:52:09;;;;;;;10.43;1.85;;;6.70;99.90;;;;;;5107516;28;20085;-64
2022/01/22 00:54:35;;;;;;;6.25;1.58;;;6.60;99.90;;;;;;5106838;28;20447;-65
2022/01/22 00:57:01;;;;;;;10.27;1.88;;;6.60;99.90;;;;;;5116745;28;20044;-65
2022/01/22 00:59:27;;;;;;;6.15;1.90;;;6.70;99.90;;;;;;5107626;28;20071;-64
2022/01/22 01:01:53;;;;;;;7.78;2.00;;;6.80;99.90;;;;;;5119873;28;20044;-65
2022/01/22 01:04:18;;;;;;;9.88;1.85;;;6.80;99.90;;;;;;5105988;28;20044;-65
2022/01/22 01:06:44;;;;;;;11.20;2.17;;;6.70;99.90;;;;;;5124665;28;20051;-65
2022/01/22 01:09:12;;;;;;;8.18;2.05;;;6.60;99.90;;;;;;5107379;28;20044;-65
2022/01/22 01:11:45;;;;;;;9.43;1.70;;;6.60;99.90;;;;;;5125111;28;20054;-65
2022/01/22 01:14:16;;;;;;;9.20;2.00;;;6.60;99.90;;;;;;5125515;28;20050;-65
2022/01/22 01:33:19;;;;;;;10.05;2.38;;;6.70;99.90;;;;;;5118233;28;20092;-64
2022/01/22 01:35:45;;;;;;;10.20;2.50;;;6.70;99.90;;;;;;5112328;28;20122;-64
2022/01/22 01:38:11;;;;;;;6.97;2.28;;;6.80;99.90;;;;;;5119540;28;20051;-64
2022/01/22 01:40:40;;;;;;;9.27;2.30;;;6.80;99.90;;;;;;5118808;28;20048;-65
2022/01/22 01:43:18;;;;;;;7.10;2.28;;;6.70;99.90;;;;;;5127125;27;20460;-65
2022/01/22 01:45:44;;;;;;;6.25;1.90;;;6.90;99.90;;;;;;5124881;28;20071;-64
2022/01/22 01:48:16;;;;;;;10.05;2.25;;;6.90;99.90;;;;;;5113896;28;20051;-65
2022/01/22 01:50:43;;;;;;;9.15;2.78;;;7.00;99.90;;;;;;5115111;28;20106;-65
2022/01/22 01:53:15;;;;;;;10.95;3.47;;;6.90;99.90;;;;;;5118242;28;20098;-65
2022/01/22 01:56:01;;;;;;;11.77;2.85;;;6.90;99.90;;;;;;5116836;28;20047;-65
2022/01/22 01:58:30;;;;;;;12.52;3.95;;;6.80;99.90;;;;;;5117670;28;20058;-64
2022/01/22 02:01:00;;;;;;;9.93;2.80;;;6.90;99.90;;;;;;5117094;28;20054;-65
2022/01/22 02:03:26;;;;;;;8.43;2.63;;;6.90;99.90;;;;;;5122610;28;20547;-65
2022/01/22 02:05:52;;;;;;;11.02;2.58;;;6.90;99.90;;;;;;5115123;28;20043;-65
2022/01/22 02:08:19;;;;;;;13.82;2.63;;;6.80;99.90;;;;;;5123606;28;20107;-65
2022/01/22 02:10:54;;;;;;;13.43;2.72;;;7.20;99.90;;;;;;5124001;28;20122;-65
2022/01/22 02:24:49;;;;;;;6.88;1.67;;;7.20;99.90;;;;;;5105468;28;20069;-65
2022/01/22 02:27:15;;;;;;;6.18;1.88;;;7.20;99.90;;;;;;5133585;27;20275;-65
2022/01/22 02:29:41;;;;;;;8.27;1.95;;;7.00;99.90;;;;;;5123913;28;20038;-65
2022/01/22 02:34:55;;;;;;;6.05;1.50;;;6.90;99.90;;;;;;5123849;28;20057;-65
2022/01/22 02:37:23;;;;;;;4.63;1.60;;;7.10;99.90;;;;;;5107157;28;20054;-65
2022/01/22 02:42:28;;;;;;;3.40;1.10;;;7.30;99.90;;;;;;5121871;28;20044;-65
2022/01/22 02:44:54;;;;;;;5.75;1.92;;;7.10;99.90;;;;;;5120142;28;20048;-65
2022/01/22 02:47:20;;;;;;;5.45;1.73;;;7.00;99.90;;;;;;5105461;28;20046;-65
2022/01/22 02:49:46;;;;;;;10.02;2.47;;;6.90;99.90;;;;;;5105295;28;20091;-65
2022/01/22 02:52:12;;;;;;;5.03;1.40;;;7.00;99.90;;;;;;5123895;28;20480;-65
2022/01/22 02:54:39;;;;;;;4.38;1.25;;;7.20;99.90;;;;;;5127983;28;20047;-65
2022/01/22 02:57:08;;;;;;;3.50;1.42;;;7.10;99.90;;;;;;5128603;27;20047;-65
2022/01/22 02:59:34;;;;;;;5.85;1.45;;;7.10;99.90;;;;;;5125415;27;20055;-65
2022/01/22 03:02:01;;;;;;;5.82;1.70;;;7.10;99.90;;;;;;5107857;28;20130;-65
2022/01/22 03:04:27;;;;;;;6.72;1.80;;;6.90;99.90;;;;;;5117293;28;20103;-65
2022/01/22 03:06:52;;;;;;;8.75;2.20;;;7.00;99.90;;;;;;5128899;28;20042;-65
2022/01/22 03:09:26;;;;;;;8.60;1.98;;;7.00;99.90;;;;;;5110715;28;20043;-65
2022/01/22 03:27:27;;;;;;;8.35;2.08;;;7.00;99.90;;;;;;5138300;27;20048;-65
2022/01/22 03:29:54;;;;;;;8.38;2.00;;;7.10;99.90;;;;;;5149306;27;20492;-65
2022/01/22 03:32:21;;;;;;;13.30;2.10;;;7.10;99.90;;;;;;5109181;28;20495;-65
2022/01/22 03:35:09;;;;;;;8.20;1.73;;;7.10;99.90;;;;;;5109065;28;20103;-65
2022/01/22 03:37:35;;;;;;;10.27;2.20;;;7.10;99.90;;;;;;5117668;27;20089;-65
2022/01/22 03:40:01;;;;;;;8.80;1.92;;;7.10;99.90;;;;;;5107927;28;20044;-65
2022/01/22 03:42:27;;;;;;;10.48;1.70;;;7.00;99.90;;;;;;5108807;28;20048;-65
2022/01/22 03:44:52;;;;;;;8.20;1.85;;;7.00;99.90;;;;;;5127446;28;20075;-65
2022/01/22 03:47:18;;;;;;;7.13;1.90;;;6.90;99.90;;;;;;5108438;28;20384;-65
2022/01/22 03:49:45;;;;;;;11.65;1.80;;;6.80;99.90;;;;;;5126631;28;20136;-65
2022/01/22 03:52:11;;;;;;;8.00;1.73;;;7.00;99.90;;;;;;5108939;28;20504;-65
2022/01/22 03:54:37;;;;;;;7.78;1.73;;;7.00;99.90;;;;;;5109100;28;20047;-65
2022/01/22 03:57:03;;;;;;;8.63;1.60;;;6.90;99.90;;;;;;5118853;28;20099;-65
2022/01/22 03:59:30;;;;;;;10.20;2.13;;;6.90;99.90;;;;;;5107556;28;20035;-65
2022/01/22 04:04:39;;;;;;;6.18;1.45;;;6.80;99.90;;;;;;5123740;28;20043;-65
2022/01/22 04:09:52;;;;;;;5.70;1.52;;;6.70;99.90;;;;;;5117207;28;20066;-65
2022/01/22 04:12:24;;;;;;;8.18;1.98;;;6.70;99.90;;;;;;5107733;28;20044;-65
2022/01/22 04:14:57;;;;;;;8.52;1.60;;;6.90;99.90;;;;;;5110751;28;20492;-65
2022/01/22 04:25:42;;;;;;;6.15;2.42;;;6.70;99.90;;;;;;5108894;28;20054;-65
2022/01/22 04:28:09;;;;;;;6.72;2.20;;;6.80;99.90;;;;;;5108965;28;20095;-65
2022/01/22 04:30:34;;;;;;;7.78;1.77;;;6.80;99.90;;;;;;5089875;28;20047;-65
2022/01/22 04:33:04;;;;;;;5.82;2.00;;;6.70;99.90;;;;;;5117234;28;20048;-65
2022/01/22 04:35:30;;;;;;;6.77;1.87;;;6.60;99.90;;;;;;5116229;28;20401;-65
2022/01/22 04:37:56;;;;;;;7.82;1.88;;;6.70;99.90;;;;;;5091375;28;20050;-65
2022/01/22 04:40:21;;;;;;;4.40;1.60;;;6.80;99.90;;;;;;5090542;28;20043;-65
2022/01/22 04:42:47;;;;;;;6.40;1.77;;;6.70;99.90;;;;;;5125810;28;20040;-65
2022/01/22 04:55:40;;;;;;;5.93;1.70;;;6.80;99.90;;;;;;5103887;28;20070;-65
2022/01/22 04:58:07;;;;;;;3.10;1.40;;;6.80;99.90;;;;;;5141053;27;20130;-65
2022/01/22 05:00:37;;;;;;;5.30;2.05;;;6.80;99.90;;;;;;5107901;28;20063;-65
2022/01/22 05:03:04;;;;;;;8.73;1.50;;;6.80;99.90;;;;;;5126508;28;20041;-65
2022/01/22 05:05:31;;;;;;;5.95;1.70;;;6.80;99.90;;;;;;5094340;28;20040;-65
2022/01/22 05:07:57;;;;;;;3.05;1.40;;;6.90;99.90;;;;;;5105659;28;20079;-65
2022/01/22 05:10:23;;;;;;;5.47;1.50;;;6.90;99.90;;;;;;5123625;28;20035;-65
2022/01/22 05:12:49;;;;;;;2.92;1.40;;;6.90;99.90;;;;;;5107612;28;20066;-65
2022/01/22 05:15:17;;;;;;;6.15;1.65;;;6.80;99.90;;;;;;5086223;28;20122;-65
2022/01/22 05:17:44;;;;;;;6.13;1.35;;;6.80;99.90;;;;;;5106023;28;20043;-65
2022/01/22 05:20:18;;;;;;;7.35;1.48;;;6.80;99.90;;;;;;5106704;28;20036;-65
2022/01/22 05:22:55;;;;;;;8.05;1.42;;;6.80;99.90;;;;;;5106513;28;20047;-65
2022/01/22 05:25:43;;;;;;;8.40;1.40;;;6.60;99.90;;;;;;5123197;28;20132;-65
2022/01/22 05:28:36;;;;;;;7.60;1.40;;;6.70;99.90;;;;;;5120294;28;20059;-65
2022/01/22 05:31:07;;;;;;;6.50;1.75;;;6.70;99.90;;;;;;5108442;27;20077;-65
2022/01/22 05:37:18;;;;;;;6.72;1.30;;;6.70;99.90;;;;;;5091220;28;20096;-65
2022/01/22 05:39:13;;;;;;;5.25;1.15;;;6.70;99.90;;;;;;5098081;28;20048;-65
2022/01/22 05:41:40;;;;;;;4.90;1.27;;;6.60;99.90;;;;;;5124654;28;20047;-65
2022/01/22 05:44:07;;;;;;;2.95;1.20;;;6.80;99.90;;;;;;5100857;28;20047;-65
2022/01/22 05:46:33;;;;;;;5.57;1.10;;;6.70;99.90;;;;;;5106634;28;20165;-65
2022/01/22 05:48:59;;;;;;;5.20;1.02;;;6.60;99.90;;;;;;5105569;28;20044;-65
2022/01/22 05:51:25;;;;;;;4.57;1.10;;;6.50;99.90;;;;;;5106321;28;20094;-65
2022/01/22 06:01:48;;;;;;;4.55;1.27;;;6.50;99.90;;;;;;5106846;28;20065;-65
2022/01/22 06:04:14;;;;;;;6.03;1.60;;;6.60;99.90;;;;;;5120990;28;20606;-65
2022/01/22 06:06:39;;;;;;;11.40;1.67;;;6.50;99.90;;;;;;5121764;28;20046;-65
2022/01/22 06:09:09;;;;;;;5.30;1.70;;;6.70;99.90;;;;;;5142151;27;20082;-65
2022/01/22 06:11:53;;;;;;;14.55;1.80;;;6.90;99.90;;;;;;5106004;28;20051;-65
2022/01/22 06:14:19;;;;;;;5.30;1.90;;;6.60;99.90;;;;;;5105929;28;20044;-65
2022/01/22 06:16:45;;;;;;;6.57;1.90;;;6.70;99.90;;;;;;5105484;28;20039;-65
2022/01/22 06:19:11;;;;;;;7.20;2.38;;;6.60;99.90;;;;;;5123957;28;20038;-65
2022/01/22 06:21:36;;;;;;;4.63;1.65;;;6.50;99.90;;;;;;5105945;28;20051;-65
2022/01/22 06:24:02;;;;;;;6.28;1.52;;;6.60;99.90;;;;;;5105472;28;20040;-65
2022/01/22 06:26:28;;;;;;;5.75;1.42;;;6.60;99.90;;;;;;5125093;28;20427;-65
2022/01/22 06:28:54;;;;;;;4.93;1.60;;;6.50;99.90;;;;;;5106667;28;20047;-65
2022/01/22 06:31:19;;;;;;;9.75;2.08;;;6.60;99.90;;;;;;5108880;28;20036;-65
2022/01/22 06:33:45;;;;;;;6.70;1.55;;;6.60;99.90;;;;;;5106479;28;20043;-65
2022/01/22 06:36:11;;;;;;;6.53;1.90;;;6.40;99.90;;;;;;5119252;28;20044;-65
2022/01/22 06:38:36;;;;;;;10.05;2.00;;;6.60;99.90;;;;;;5120202;28;20047;-65
2022/01/22 06:43:46;;;;;;;10.35;2.45;;;6.60;99.90;;;;;;5105684;28;20050;-65
2022/01/22 06:46:13;;;;;;;10.50;2.00;;;6.60;99.90;;;;;;5106306;28;20047;-65
2022/01/22 06:48:38;;;;;;;7.68;1.73;;;6.60;99.90;;;;;;5107054;28;20112;-65
2022/01/22 06:51:05;;;;;;;8.27;2.05;;;6.60;99.90;;;;;;5124092;28;20047;-69
2022/01/22 06:53:35;;;;;;;12.70;2.40;;;6.60;99.90;;;;;;5106274;28;20050;-64
2022/01/22 06:56:02;;;;;;;6.43;2.40;;;6.50;99.90;;;;;;5104674;28;20078;-64
2022/01/22 06:58:28;;;;;;;8.43;2.35;;;6.50;99.90;;;;;;5123130;28;20048;-65
2022/01/22 07:00:54;;;;;;;9.70;2.30;;;6.60;99.90;;;;;;5103999;28;20047;-65
2022/01/22 07:03:20;;;;;;;8.40;2.08;;;6.50;99.90;;;;;;5139957;28;20051;-65
2022/01/22 07:05:45;;;;;;;9.95;1.95;;;6.50;99.90;;;;;;5123262;28;20043;-65
2022/01/22 07:08:11;;;;;;;7.72;2.45;;;6.60;99.90;;;;;;5120652;28;20032;-65
2022/01/22 07:10:37;;;;;;;9.88;2.30;;;6.60;99.90;;;;;;5139563;28;20184;-65
2022/01/22 07:13:03;;;;;;;10.23;2.50;;;6.50;99.90;;;;;;5124291;28;20036;-66
2022/01/22 07:15:29;;;;;;;8.80;2.47;;;6.60;99.90;;;;;;5122408;28;20777;-65
2022/01/22 07:17:55;;;;;;;7.88;2.30;;;6.50;99.90;;;;;;5102840;28;20104;-66
2022/01/22 07:20:30;;;;;;;7.20;1.85;;;6.70;99.90;;;;;;5140147;28;20345;-65
2022/01/22 07:23:03;;;;;;;6.97;2.10;;;6.60;99.90;;;;;;5121302;28;20065;-70
2022/01/22 07:25:29;;;;;;;7.78;1.73;;;6.50;99.90;;;;;;5104500;28;20055;-65
2022/01/22 07:27:56;;;;;;;5.60;1.90;;;6.50;99.90;;;;;;5123195;28;20571;-65
2022/01/22 07:30:21;;;;;;;7.90;1.83;;;6.60;99.90;;;;;;5122909;28;20051;-66
2022/01/22 07:32:47;;;;;;;5.70;1.80;;;6.50;99.90;;;;;;5122939;28;20059;-65
2022/01/22 07:35:18;;;;;;;7.13;2.40;;;6.50;99.90;;;;;;5121076;28;20047;-65
2022/01/22 07:37:44;;;;;;;8.18;2.05;;;6.70;99.90;;;;;;5122928;28;20055;-66
2022/01/22 07:40:11;;;;;;;3.08;1.77;;;6.70;99.90;;;;;;5124778;28;20045;-66
2022/01/22 07:42:37;;;;;;;6.53;1.77;;;6.60;99.90;;;;;;5127038;28;20059;-65
2022/01/22 07:45:04;;;;;;;5.47;1.50;;;6.60;99.90;;;;;;5126958;28;20043;-65
2022/01/22 07:47:30;;;;;;;3.95;1.55;;;6.50;99.90;;;;;;5142228;27;20047;-66
2022/01/22 07:49:57;;;;;;;8.43;2.22;;;6.70;99.90;;;;;;5142418;27;20110;-65
2022/01/22 07:52:23;;;;;;;5.25;1.88;;;6.50;99.90;;;;;;5125549;28;20059;-65
2022/01/22 07:54:50;;;;;;;5.57;1.40;;;6.40;99.90;;;;;;5126421;28;20048;-67
2022/01/22 07:57:15;;;;;;;4.43;1.70;;;6.60;99.90;;;;;;5098107;27;20488;-66
2022/01/22 07:59:41;;;;;;;5.95;1.70;;;6.50;99.90;;;;;;5095754;27;20060;-67
2022/01/22 08:02:07;;;;;;;4.88;2.05;;;6.40;99.90;;;;;;5093359;27;20101;-66
2022/01/22 08:04:34;;;;;;;4.95;1.80;;;6.50;99.90;;;;;;5127862;27;20044;-67
2022/01/22 08:07:04;;;;;;;6.57;1.85;;;6.50;99.90;;;;;;5118092;27;20063;-67
2022/01/22 08:09:30;;;;;;;3.63;1.42;;;6.60;99.90;;;;;;5115772;27;20150;-66
2022/01/22 08:11:56;;;;;;;3.83;1.67;;;6.40;99.90;;;;;;5106690;28;20035;-66
2022/01/22 08:14:22;;;;;;;4.78;1.42;;;6.60;99.90;;;;;;5101511;27;20043;-66
2022/01/22 08:16:49;;;;;;;4.13;1.63;;;6.70;99.90;;;;;;5100140;28;20043;-66
2022/01/22 08:19:16;;;;;;;5.70;1.90;;;6.50;99.90;;;;;;5098119;27;20133;-66
2022/01/22 08:21:44;;;;;;;6.50;1.83;;;6.40;99.90;;;;;;5112097;28;20052;-67
2022/01/22 08:24:10;;;;;;;3.85;1.50;;;6.50;99.90;;;;;;5099115;27;20063;-66
2022/01/22 08:26:42;;;;;;;4.90;2.70;;;6.50;99.90;;;;;;5102193;28;20048;-66
2022/01/22 08:29:08;;;;;;;8.25;2.03;;;6.60;99.90;;;;;;5094305;28;20547;-67
2022/01/22 08:36:46;;;;;;;4.80;1.63;;;6.40;99.90;;;;;;5105726;28;20157;-66
2022/01/22 08:39:14;;;;;;;2.97;1.60;;;6.60;99.90;;;;;;5097279;27;20562;-66
2022/01/22 08:41:40;;;;;;;4.88;1.30;;;6.60;99.90;;;;;;5109242;28;20047;-66
2022/01/22 08:44:06;;;;;;;5.07;2.15;;;6.40;99.90;;;;;;5116375;27;20561;-67
2022/01/22 08:46:34;;;;;;;5.68;1.90;;;6.50;99.90;;;;;;5108801;28;20055;-66
2022/01/22 08:49:00;;;;;;;3.97;1.70;;;6.50;99.90;;;;;;5115094;27;20069;-66
2022/01/22 08:51:27;;;;;;;8.48;2.08;;;6.50;99.90;;;;;;5093179;27;20036;-66
2022/01/22 08:53:55;;;;;;;4.47;1.30;;;6.50;99.90;;;;;;5096149;27;20050;-67
2022/01/22 08:56:21;;;;;;;1.98;1.00;;;6.50;99.90;;;;;;5114705;28;20051;-66
2022/01/22 08:58:47;;;;;;;4.38;1.20;;;6.50;99.90;;;;;;5083050;27;20058;-66
2022/01/22 09:01:13;;;;;;;4.32;1.65;;;6.40;99.90;;;;;;5113248;28;20047;-66
2022/01/22 09:03:38;;;;;;;3.35;1.52;;;6.40;99.90;;;;;;5091576;27;20043;-66
2022/01/22 09:06:05;;;;;;;3.85;1.30;;;6.50;99.90;;;;;;5116542;28;20082;-67
2022/01/22 09:08:31;;;;;;;5.22;1.50;;;6.60;99.90;;;;;;5089363;27;20073;-66
2022/01/22 09:10:57;;;;;;;3.60;1.40;;;6.60;99.90;;;;;;5115426;28;20131;-66
2022/01/22 09:13:24;;;;;;;6.80;2.58;;;6.60;99.90;;;;;;5133243;27;20083;-66
2022/01/22 09:15:53;;;;;;;5.05;1.45;;;6.60;99.90;;;;;;5105997;28;20048;-66
2022/01/22 09:18:19;;;;;;;3.13;1.30;;;6.70;99.90;;;;;;5099757;28;20271;-66
2022/01/22 09:21:01;;;;;;;3.95;1.33;;;6.80;99.90;;;;;;5107945;27;20056;-65
2022/01/22 09:23:29;;;;;;;4.13;1.33;;;6.70;99.90;;;;;;5101913;28;20044;-66
2022/01/22 09:25:55;;;;;;;3.30;1.30;;;6.60;99.90;;;;;;5118486;28;20070;-66
2022/01/22 09:28:22;;;;;;;4.97;1.23;;;6.60;99.90;;;;;;5113643;27;20517;-65
2022/01/22 09:30:48;;;;;;;6.57;1.42;;;6.70;99.90;;;;;;5105497;27;20131;-65
2022/01/22 09:33:14;;;;;;;2.97;1.40;;;6.60;99.90;;;;;;5132931;27;20094;-65
2022/01/22 09:35:40;;;;;;;7.00;1.85;;;6.50;99.90;;;;;;5104844;27;20079;-65
2022/01/22 09:38:06;;;;;;;4.43;1.50;;;6.70;99.90;;;;;;5098090;28;20052;-65
2022/01/22 09:40:32;;;;;;;6.63;1.70;;;6.50;99.90;;;;;;5105650;27;20119;-64
2022/01/22 09:42:59;;;;;;;7.30;1.40;;;6.60;99.90;;;;;;5135099;27;20054;-65
2022/01/22 09:45:26;;;;;;;5.50;1.45;;;6.50;99.90;;;;;;5122952;27;20271;-65
2022/01/22 09:47:54;;;;;;;8.32;1.65;;;6.50;99.90;;;;;;5101028;28;20067;-65
2022/01/22 09:50:22;;;;;;;11.18;1.77;;;6.50;99.90;;;;;;5104066;27;20047;-64
2022/01/22 09:52:49;;;;;;;11.75;1.75;;;6.70;99.90;;;;;;5099565;28;20453;-66
2022/01/22 09:55:16;;;;;;;9.48;1.63;;;6.70;99.90;;;;;;5121011;27;20070;-66
2022/01/22 09:57:44;;;;;;;5.85;1.60;;;6.50;99.90;;;;;;5093049;28;20054;-66
2022/01/22 10:00:13;;;;;;;12.15;2.08;;;6.50;99.90;;;;;;5120378;27;20047;-66
2022/01/22 10:02:51;;;;;;;8.32;2.20;;;6.50;99.90;;;;;;5102794;28;20044;-66
2022/01/22 10:05:36;;;;;;;6.43;2.17;;;6.50;99.90;;;;;;5118654;27;20371;-66
2022/01/22 10:08:31;;;;;;;9.65;1.90;;;6.60;99.90;;;;;;5101527;28;20071;-66
2022/01/22 10:10:59;;;;;;;7.25;2.10;;;6.60;99.90;;;;;;5119303;27;20074;-66
2022/01/22 10:13:45;;;;;;;6.38;1.77;;;6.70;99.90;;;;;;5097113;28;20374;-66
2022/01/22 10:16:13;;;;;;;12.30;1.77;;;6.70;99.90;;;;;;5087268;28;20115;-66
2022/01/22 10:18:39;;;;;;;9.15;2.63;;;6.70;99.90;;;;;;5096433;28;20077;-68
2022/01/22 10:21:10;;;;;;;7.50;2.03;;;6.60;99.90;;;;;;5110658;28;20055;-66
2022/01/22 10:23:39;;;;;;;10.23;2.20;;;6.60;99.90;;;;;;5130962;27;20380;-66
2022/01/22 10:26:12;;;;;;;8.45;2.40;;;6.70;99.90;;;;;;5078005;28;20115;-66
2022/01/22 10:28:46;;;;;;;10.35;2.40;;;6.60;99.90;;;;;;5130265;27;20531;-66
2022/01/22 10:31:24;;;;;;;7.00;2.08;;;6.50;99.90;;;;;;5102522;28;20051;-66
2022/01/22 10:34:10;;;;;;;10.25;2.03;;;6.60;99.90;;;;;;5087656;28;20067;-66
2022/01/22 10:36:36;;;;;;;5.68;2.58;;;6.60;99.90;;;;;;5127694;28;20054;-66
2022/01/22 10:39:08;;;;;;;6.13;2.20;;;6.60;99.90;;;;;;5109669;28;20032;-66
2022/01/22 10:41:42;;;;;;;5.07;2.03;;;6.80;99.90;;;;;;5108395;28;20071;-66
2022/01/22 10:44:21;;;;;;;6.32;1.80;;;6.70;99.90;;;;;;5100589;28;21182;-66
2022/01/22 10:49:21;;;;;;;7.20;2.20;;;6.50;99.90;;;;;;5108767;28;20559;-66
2022/01/22 10:51:58;;;;;;;7.78;2.58;;;6.70;99.90;;;;;;5108142;28;20099;-67
2022/01/22 10:54:27;;;;;;;8.75;2.30;;;6.70;99.90;;;;;;5118908;28;20272;-66
2022/01/22 10:56:54;;;;;;;9.40;2.55;;;6.60;99.90;;;;;;5097330;28;20082;-66
2022/01/22 10:59:21;;;;;;;7.72;2.38;;;6.80;99.90;;;;;;5081915;28;20058;-66
2022/01/22 11:01:48;;;;;;;5.13;2.30;;;6.80;99.90;;;;;;5110669;28;20047;-66
2022/01/22 11:04:17;;;;;;;7.35;2.10;;;6.70;99.90;;;;;;5104439;28;20043;-66
2022/01/22 11:06:50;;;;;;;7.75;2.30;;;6.90;99.90;;;;;;5129584;28;20074;-66
2022/01/22 11:09:16;;;;;;;7.75;2.33;;;7.00;99.90;;;;;;5098434;28;20054;-66
2022/01/22 11:11:43;;;;;;;4.88;1.70;;;7.10;99.90;;;;;;5112707;28;20059;-67
2022/01/22 11:14:10;;;;;;;8.00;2.53;;;7.00;99.90;;;;;;5089719;27;20052;-66
2022/01/22 11:16:41;;;;;;;6.07;2.33;;;7.40;99.90;;;;;;5115093;28;20043;-66
2022/01/22 11:19:09;;;;;;;7.03;2.53;;;7.20;99.90;;;;;;5091706;27;20039;-66
2022/01/22 11:21:40;;;;;;;6.53;2.38;;;7.40;99.90;;;;;;5115815;28;20059;-66
2022/01/22 11:24:08;;;;;;;8.43;2.15;;;7.00;99.90;;;;;;5121754;27;20043;-67
2022/01/22 11:26:38;;;;;;;7.32;2.25;;;7.10;99.90;;;;;;5115178;28;20507;-66
2022/01/22 11:29:04;;;;;;;4.95;2.00;;;7.10;99.90;;;;;;5109720;27;20043;-66
2022/01/22 11:31:32;;;;;;;5.90;2.25;;;7.00;99.90;;;;;;5120074;27;20055;-66
2022/01/22 11:34:00;;;;;;;8.52;2.50;;;6.80;99.90;;;;;;5079889;27;20608;-66
2022/01/22 11:36:37;;;;;;;7.97;2.60;;;7.00;99.90;;;;;;5109455;28;20060;-66
2022/01/22 11:39:04;;;;;;;15.65;3.70;;;6.90;99.90;;;;;;5089607;27;20081;-67
2022/01/22 11:41:30;;;;;;;13.02;3.90;;;6.90;99.90;;;;;;5115944;28;20048;-66
2022/01/22 11:44:11;;;;;;;8.02;2.92;;;7.00;99.90;;;;;;5118445;28;20053;-66
2022/01/22 11:46:45;;;;;;;8.90;2.92;;;7.00;99.90;;;;;;5089950;28;20047;-66
2022/01/22 11:49:29;;;;;;;9.25;3.10;;;6.90;99.90;;;;;;5111005;27;20061;-66
2022/01/22 11:52:07;;;;;;;8.82;3.17;;;6.90;99.90;;;;;;5114695;28;20103;-66
2022/01/22 11:54:49;;;;;;;11.93;3.35;;;6.90;99.90;;;;;;5096865;27;20293;-66
2022/01/22 11:57:16;;;;;;;10.70;3.38;;;6.80;99.90;;;;;;5112301;28;20039;-66
2022/01/22 11:59:46;;;;;;;7.50;2.80;;;6.80;99.90;;;;;;5080415;27;20055;-66
2022/01/22 12:02:14;;;;;;;7.75;2.90;;;6.90;99.90;;;;;;5112383;28;20047;-66
2022/01/22 12:04:39;;;;;;;12.55;3.35;;;6.80;99.90;;;;;;5109452;27;20062;-66
2022/01/22 12:07:06;;;;;;;11.77;3.70;;;6.80;99.90;;;;;;5131651;27;20172;-66
2022/01/22 12:09:40;;;;;;;14.60;4.65;;;6.90;99.90;;;;;;5108582;27;20051;-66
2022/01/22 12:15:22;;;;;;;14.95;4.13;;;6.90;99.90;;;;;;5120057;27;20035;-66
2022/01/22 12:17:59;;;;;;;13.75;4.50;;;6.80;99.90;;;;;;5105185;28;20103;-66
2022/01/22 12:23:10;;;;;;;12.93;4.57;;;6.80;99.90;;;;;;5135920;27;20105;-66
2022/01/22 12:25:39;;;;;;;12.13;3.75;;;6.80;99.90;;;;;;5098267;27;20058;-66
2022/01/22 12:28:06;;;;;;;10.73;3.78;;;6.80;99.90;;;;;;5104791;28;20082;-66
2022/01/22 12:30:39;;;;;;;12.88;4.30;;;6.90;99.90;;;;;;5116118;27;20119;-66
2022/01/22 12:33:10;;;;;;;20.67;5.25;;;6.90;99.90;;;;;;5131336;27;20054;-64
2022/01/22 12:35:48;;;;;;;17.73;4.43;;;6.90;99.90;;;;;;5102677;27;20059;-64
2022/01/22 12:38:13;;;;;;;14.40;4.53;;;6.80;99.90;;;;;;5108572;28;20043;-63
2022/01/22 12:40:39;;;;;;;14.68;4.75;;;6.90;99.90;;;;;;5101092;27;20058;-63
2022/01/22 12:43:11;;;;;;;18.60;5.78;;;6.80;99.90;;;;;;5122391;27;20116;-64
2022/01/22 12:45:40;;;;;;;18.00;5.68;;;7.00;99.90;;;;;;5120303;27;20069;-64
2022/01/22 12:48:06;;;;;;;16.25;5.50;;;6.90;99.90;;;;;;5105781;28;20050;-64
2022/01/22 12:50:35;;;;;;;16.73;5.07;;;6.80;99.90;;;;;;5123439;27;20051;-64
2022/01/22 12:53:09;;;;;;;17.77;6.03;;;6.90;99.90;;;;;;5118363;28;20035;-64
2022/01/22 12:56:47;;;;;;;13.82;5.82;;;6.80;99.90;;;;;;5099146;27;20062;-64
2022/01/22 12:58:26;;;;;;;20.55;5.55;;;6.80;99.90;;;;;;5070237;28;20055;-63
2022/01/22 13:01:10;;;;;;;16.30;4.57;;;6.90;99.90;;;;;;5087134;28;20055;-63
2022/01/22 13:03:39;;;;;;;19.88;5.13;;;6.90;99.90;;;;;;5101682;28;20044;-63
2022/01/22 13:06:05;;;;;;;23.67;5.45;;;6.80;99.90;;;;;;5104813;27;20054;-63
2022/01/22 13:08:32;;;;;;;14.30;5.32;;;7.00;99.90;;;;;;5103380;28;20335;-64
2022/01/22 13:11:02;;;;;;;11.25;5.05;;;6.80;99.90;;;;;;5105157;27;20051;-64
2022/01/22 13:13:28;;;;;;;14.32;5.07;;;7.00;99.90;;;;;;5121324;27;20211;-64
2022/01/22 13:16:12;;;;;;;14.55;4.80;;;6.90;99.90;;;;;;5083446;28;20096;-64
2022/01/22 13:18:44;;;;;;;14.57;5.07;;;7.00;99.90;;;;;;5106877;28;20107;-64
2022/01/22 13:21:11;;;;;;;11.85;4.72;;;7.00;99.90;;;;;;5105986;27;20047;-64
2022/01/22 13:23:37;;;;;;;11.52;4.85;;;6.90;99.90;;;;;;5117811;27;20062;-64
2022/01/22 13:26:04;;;;;;;18.45;4.50;;;6.90;99.90;;;;;;5103835;27;20083;-64
2022/01/22 13:28:33;;;;;;;13.00;4.90;;;7.00;99.90;;;;;;5112421;27;20044;-64
2022/01/22 13:31:04;;;;;;;15.23;4.47;;;6.90;99.90;;;;;;5104101;27;20058;-64
2022/01/22 13:33:42;;;;;;;13.75;4.72;;;7.00;99.90;;;;;;5094231;28;20057;-64
2022/01/22 13:36:21;;;;;;;10.82;4.82;;;6.90;99.90;;;;;;5120069;27;20043;-64
2022/01/22 13:49:50;;;;;;;16.92;5.30;;;7.00;99.90;;;;;;5119185;27;20043;-64
2022/01/22 13:52:17;;;;;;;15.85;5.13;;;7.00;99.90;;;;;;5112929;28;20059;-66
2022/01/22 13:54:46;;;;;;;16.15;5.38;;;7.00;99.90;;;;;;5088596;27;20054;-66
2022/01/22 13:57:21;;;;;;;15.45;5.97;;;6.80;99.90;;;;;;5114410;28;20589;-64
2022/01/22 13:59:52;;;;;;;13.60;5.13;;;6.90;99.90;;;;;;5084357;27;20071;-64
2022/01/22 14:02:38;;;;;;;14.65;5.38;;;7.00;99.90;;;;;;5112551;28;20077;-64
2022/01/22 14:05:08;;;;;;;14.18;5.78;;;6.90;99.90;;;;;;5102853;27;20134;-64
2022/01/22 14:07:43;;;;;;;15.82;5.63;;;7.00;99.90;;;;;;5111810;28;20078;-66
2022/01/22 14:10:24;;;;;;;10.52;5.53;;;6.90;99.90;;;;;;5117136;27;20531;-63
2022/01/22 14:13:05;;;;;;;13.20;4.50;;;6.90;99.90;;;;;;5092275;28;20563;-64
2022/01/22 14:15:35;;;;;;;11.82;4.07;;;6.90;99.90;;;;;;5109577;27;20346;-64
2022/01/22 14:18:22;;;;;;;13.48;3.95;;;6.90;99.90;;;;;;5119889;27;20046;-67
2022/01/22 14:20:49;;;;;;;8.40;3.15;;;6.90;99.90;;;;;;5098359;28;20054;-66
2022/01/22 14:23:24;;;;;;;12.30;3.00;;;6.90;99.90;;;;;;5104087;28;20047;-67
2022/01/22 14:26:04;;;;;;;19.67;3.92;;;6.80;99.90;;;;;;5082532;28;20043;-67
2022/01/22 14:28:44;;;;;;;14.55;3.67;;;6.90;99.90;;;;;;5081214;28;20059;-67
2022/01/22 14:31:29;;;;;;;9.73;2.72;;;6.90;99.90;;;;;;5118973;27;20142;-67
2022/01/22 14:34:06;;;;;;;16.00;3.28;;;6.90;99.90;;;;;;5108791;28;20039;-67
2022/01/22 14:36:40;;;;;;;14.02;3.05;;;7.00;99.90;;;;;;5102381;28;20403;-67
2022/01/22 14:44:57;;;;;;;6.63;2.72;;;6.80;99.90;;;;;;5084809;27;20073;-67
2022/01/22 14:47:25;;;;;;;12.57;3.50;;;6.90;99.90;;;;;;5113042;28;20304;-67
2022/01/22 14:50:10;;;;;;;9.45;3.13;;;6.80;99.90;;;;;;5124096;27;20040;-67
2022/01/22 14:52:37;;;;;;;13.65;3.42;;;6.70;99.90;;;;;;5110669;28;20134;-67
2022/01/22 14:55:08;;;;;;;10.65;3.30;;;6.80;99.90;;;;;;5112245;27;20054;-67
2022/01/22 14:57:37;;;;;;;16.05;3.63;;;6.70;99.90;;;;;;5100586;28;20043;-67
2022/01/22 15:00:09;;;;;;;9.00;3.05;;;6.70;99.90;;;;;;5109864;27;20047;-67